sensor_id;sensor_type;location;lat;lon;timestamp;pressure;altitude;pressure_sealevel;temperature;humidity
55517;BME280;41724;51.176;-0.708;2023-02-28T00:00:50;102774.46;;;6.98;43.91
55517;BME280;41724;51.176;-0.708;2023-02-28T00:03:17;102777.66;;;7.33;43.08
55517;BME280;41724;51.176;-0.708;2023-02-28T00:05:45;102780.03;;;7.08;43.85
55517;BME280;41724;51.176;-0.708;2023-02-28T00:08:12;102782.55;;;7.11;44.21
55517;BME280;41724;51.176;-0.708;2023-02-28T00:10:39;102782.15;;;7.29;44.64
55517;BME280;41724;51.176;-0.708;2023-02-28T00:13:07;102784.25;;;6.69;44.77
55517;BME280;41724;51.176;-0.708;2023-02-28T00:15:34;102787.32;;;7.12;44.50
55517;BME280;41724;51.176;-0.708;2023-02-28T00:18:01;102783.50;;;7.31;44.22
55517;BME280;41724;51.176;-0.708;2023-02-28T00:20:28;102786.30;;;6.70;45.40
55517;BME280;41724;51.176;-0.708;2023-02-28T00:22:56;102787.94;;;7.05;44.42
55517;BME280;41724;51.176;-0.708;2023-02-28T00:25:24;102782.69;;;7.23;44.17
55517;BME280;41724;51.176;-0.708;2023-02-28T00:27:52;102786.28;;;7.38;43.88
55517;BME280;41724;51.176;-0.708;2023-02-28T00:30:21;102782.37;;;7.10;44.07
55517;BME280;41724;51.176;-0.708;2023-02-28T00:32:50;102785.87;;;6.89;44.59
55517;BME280;41724;51.176;-0.708;2023-02-28T00:35:17;102786.82;;;7.29;44.40
55517;BME280;41724;51.176;-0.708;2023-02-28T00:37:44;102786.41;;;7.17;44.62
55517;BME280;41724;51.176;-0.708;2023-02-28T00:40:12;102788.30;;;6.89;45.38
55517;BME280;41724;51.176;-0.708;2023-02-28T00:42:39;102789.62;;;6.61;45.45
55517;BME280;41724;51.176;-0.708;2023-02-28T00:45:07;102790.51;;;6.72;45.53
55517;BME280;41724;51.176;-0.708;2023-02-28T00:47:34;102793.58;;;6.85;45.87
55517;BME280;41724;51.176;-0.708;2023-02-28T00:50:03;102794.65;;;6.47;45.87
55517;BME280;41724;51.176;-0.708;2023-02-28T00:52:30;102791.62;;;6.72;45.48
55517;BME280;41724;51.176;-0.708;2023-02-28T00:54:57;102789.59;;;6.62;45.47
55517;BME280;41724;51.176;-0.708;2023-02-28T00:57:24;102794.78;;;6.51;46.12
55517;BME280;41724;51.176;-0.708;2023-02-28T00:59:52;102798.60;;;6.43;45.53
55517;BME280;41724;51.176;-0.708;2023-02-28T01:02:19;102796.93;;;6.40;46.04
55517;BME280;41724;51.176;-0.708;2023-02-28T01:04:46;102803.51;;;6.58;45.67
55517;BME280;41724;51.176;-0.708;2023-02-28T01:07:14;102798.75;;;6.39;46.01
55517;BME280;41724;51.176;-0.708;2023-02-28T01:09:41;102804.35;;;6.25;46.10
55517;BME280;41724;51.176;-0.708;2023-02-28T01:12:08;102805.54;;;6.19;46.31
55517;BME280;41724;51.176;-0.708;2023-02-28T01:14:36;102804.82;;;5.99;46.95
55517;BME280;41724;51.176;-0.708;2023-02-28T01:17:03;102807.03;;;5.87;47.42
55517;BME280;41724;51.176;-0.708;2023-02-28T01:19:30;102810.22;;;5.85;47.53
55517;BME280;41724;51.176;-0.708;2023-02-28T01:22:01;102803.20;;;5.97;47.31
55517;BME280;41724;51.176;-0.708;2023-02-28T01:24:28;102809.79;;;6.06;47.41
55517;BME280;41724;51.176;-0.708;2023-02-28T01:26:55;102804.78;;;5.93;47.47
55517;BME280;41724;51.176;-0.708;2023-02-28T01:29:22;102802.78;;;6.41;46.87
55517;BME280;41724;51.176;-0.708;2023-02-28T01:31:50;102800.34;;;6.03;47.22
55517;BME280;41724;51.176;-0.708;2023-02-28T01:34:17;102801.15;;;5.97;47.34
55517;BME280;41724;51.176;-0.708;2023-02-28T01:36:44;102800.65;;;5.09;48.73
55517;BME280;41724;51.176;-0.708;2023-02-28T01:39:11;102804.56;;;5.43;48.94
55517;BME280;41724;51.176;-0.708;2023-02-28T01:41:39;102808.72;;;5.75;47.87
55517;BME280;41724;51.176;-0.708;2023-02-28T01:44:55;102805.62;;;5.59;48.18
55517;BME280;41724;51.176;-0.708;2023-02-28T01:47:26;102809.42;;;4.80;49.11
55517;BME280;41724;51.176;-0.708;2023-02-28T01:49:56;102814.01;;;5.22;48.59
55517;BME280;41724;51.176;-0.708;2023-02-28T01:52:23;102812.40;;;5.27;48.20
55517;BME280;41724;51.176;-0.708;2023-02-28T01:54:52;102812.65;;;5.21;48.04
55517;BME280;41724;51.176;-0.708;2023-02-28T01:57:24;102813.74;;;5.04;48.53
55517;BME280;41724;51.176;-0.708;2023-02-28T01:59:56;102808.95;;;5.26;48.10
55517;BME280;41724;51.176;-0.708;2023-02-28T02:02:25;102816.88;;;4.99;48.26
55517;BME280;41724;51.176;-0.708;2023-02-28T02:04:56;102816.52;;;5.35;48.46
55517;BME280;41724;51.176;-0.708;2023-02-28T02:07:26;102823.32;;;4.48;49.18
55517;BME280;41724;51.176;-0.708;2023-02-28T02:10:00;102825.44;;;4.43;50.79
55517;BME280;41724;51.176;-0.708;2023-02-28T02:12:40;102821.54;;;4.82;48.73
55517;BME280;41724;51.176;-0.708;2023-02-28T02:15:14;102819.11;;;4.94;48.64
55517;BME280;41724;51.176;-0.708;2023-02-28T02:17:45;102812.54;;;4.96;48.23
55517;BME280;41724;51.176;-0.708;2023-02-28T02:21:34;102812.29;;;5.13;48.09
55517;BME280;41724;51.176;-0.708;2023-02-28T02:25:19;102814.99;;;5.14;47.74
55517;BME280;41724;51.176;-0.708;2023-02-28T02:28:06;102810.47;;;5.29;48.17
55517;BME280;41724;51.176;-0.708;2023-02-28T02:30:54;102816.35;;;5.20;49.59
55517;BME280;41724;51.176;-0.708;2023-02-28T02:33:46;102812.08;;;5.26;49.42
55517;BME280;41724;51.176;-0.708;2023-02-28T02:36:24;102811.20;;;5.21;49.47
55517;BME280;41724;51.176;-0.708;2023-02-28T02:39:01;102812.46;;;5.21;50.04
55517;BME280;41724;51.176;-0.708;2023-02-28T02:41:35;102811.65;;;5.15;50.17
55517;BME280;41724;51.176;-0.708;2023-02-28T02:44:10;102811.16;;;5.27;49.60
55517;BME280;41724;51.176;-0.708;2023-02-28T02:46:42;102806.73;;;5.25;50.60
55517;BME280;41724;51.176;-0.708;2023-02-28T02:49:15;102809.17;;;5.53;50.71
55517;BME280;41724;51.176;-0.708;2023-02-28T02:51:44;102806.56;;;5.23;51.29
55517;BME280;41724;51.176;-0.708;2023-02-28T02:54:15;102802.27;;;5.45;50.61
55517;BME280;41724;51.176;-0.708;2023-02-28T02:56:47;102800.49;;;5.50;50.27
55517;BME280;41724;51.176;-0.708;2023-02-28T02:59:19;102794.19;;;5.50;49.98
55517;BME280;41724;51.176;-0.708;2023-02-28T03:01:51;102796.75;;;5.53;49.94
55517;BME280;41724;51.176;-0.708;2023-02-28T03:04:22;102792.44;;;5.54;49.92
55517;BME280;41724;51.176;-0.708;2023-02-28T03:06:51;102791.10;;;5.49;49.87
55517;BME280;41724;51.176;-0.708;2023-02-28T03:09:18;102792.69;;;5.07;51.40
55517;BME280;41724;51.176;-0.708;2023-02-28T03:11:45;102795.91;;;5.33;51.62
55517;BME280;41724;51.176;-0.708;2023-02-28T03:14:27;102796.03;;;5.33;51.78
55517;BME280;41724;51.176;-0.708;2023-02-28T03:17:13;102792.16;;;5.50;51.55
55517;BME280;41724;51.176;-0.708;2023-02-28T03:19:49;102794.33;;;5.21;52.04
55517;BME280;41724;51.176;-0.708;2023-02-28T03:22:38;102792.39;;;5.06;52.30
55517;BME280;41724;51.176;-0.708;2023-02-28T03:25:16;102795.32;;;5.15;52.51
55517;BME280;41724;51.176;-0.708;2023-02-28T03:27:53;102797.88;;;4.81;53.41
55517;BME280;41724;51.176;-0.708;2023-02-28T03:30:26;102797.28;;;5.40;52.65
55517;BME280;41724;51.176;-0.708;2023-02-28T03:32:58;102790.97;;;5.06;52.93
55517;BME280;41724;51.176;-0.708;2023-02-28T03:35:34;102791.64;;;5.08;53.32
55517;BME280;41724;51.176;-0.708;2023-02-28T03:38:08;102792.80;;;4.59;54.22
55517;BME280;41724;51.176;-0.708;2023-02-28T03:40:38;102794.72;;;4.77;53.07
55517;BME280;41724;51.176;-0.708;2023-02-28T03:43:10;102790.47;;;4.91;52.58
55517;BME280;41724;51.176;-0.708;2023-02-28T03:45:40;102792.43;;;4.40;52.34
55517;BME280;41724;51.176;-0.708;2023-02-28T03:48:12;102798.46;;;4.61;51.97
55517;BME280;41724;51.176;-0.708;2023-02-28T03:50:42;102796.88;;;4.37;51.17
55517;BME280;41724;51.176;-0.708;2023-02-28T03:53:14;102796.36;;;4.15;52.41
55517;BME280;41724;51.176;-0.708;2023-02-28T03:55:46;102796.17;;;4.23;51.11
55517;BME280;41724;51.176;-0.708;2023-02-28T03:58:20;102807.57;;;4.01;51.18
55517;BME280;41724;51.176;-0.708;2023-02-28T04:00:52;102809.39;;;4.05;50.94
55517;BME280;41724;51.176;-0.708;2023-02-28T04:03:22;102814.32;;;4.34;51.21
55517;BME280;41724;51.176;-0.708;2023-02-28T04:05:52;102815.14;;;4.02;50.42
55517;BME280;41724;51.176;-0.708;2023-02-28T04:08:20;102807.56;;;4.08;50.30
55517;BME280;41724;51.176;-0.708;2023-02-28T04:10:53;102804.49;;;4.14;51.02
55517;BME280;41724;51.176;-0.708;2023-02-28T04:13:23;102805.84;;;3.17;52.91
55517;BME280;41724;51.176;-0.708;2023-02-28T04:15:50;102811.34;;;3.70;52.58
55517;BME280;41724;51.176;-0.708;2023-02-28T04:18:18;102812.16;;;3.31;53.59
55517;BME280;41724;51.176;-0.708;2023-02-28T04:20:45;102812.57;;;3.70;51.78
55517;BME280;41724;51.176;-0.708;2023-02-28T04:23:12;102819.86;;;3.70;51.67
55517;BME280;41724;51.176;-0.708;2023-02-28T04:25:40;102824.12;;;3.80;51.28
55517;BME280;41724;51.176;-0.708;2023-02-28T04:28:07;102823.03;;;4.01;50.94
55517;BME280;41724;51.176;-0.708;2023-02-28T04:30:34;102825.21;;;3.41;51.81
55517;BME280;41724;51.176;-0.708;2023-02-28T04:33:02;102822.98;;;3.52;51.61
55517;BME280;41724;51.176;-0.708;2023-02-28T04:35:29;102830.15;;;3.56;51.31
55517;BME280;41724;51.176;-0.708;2023-02-28T04:37:56;102830.61;;;4.35;50.57
55517;BME280;41724;51.176;-0.708;2023-02-28T04:40:24;102834.22;;;3.75;50.81
55517;BME280;41724;51.176;-0.708;2023-02-28T04:42:51;102835.03;;;3.94;50.42
55517;BME280;41724;51.176;-0.708;2023-02-28T04:45:18;102843.23;;;3.48;50.89
55517;BME280;41724;51.176;-0.708;2023-02-28T04:47:45;102843.72;;;3.50;51.18
55517;BME280;41724;51.176;-0.708;2023-02-28T04:50:12;102841.88;;;3.94;50.27
55517;BME280;41724;51.176;-0.708;2023-02-28T04:52:40;102846.34;;;3.56;50.73
55517;BME280;41724;51.176;-0.708;2023-02-28T04:55:08;102847.94;;;3.64;50.32
55517;BME280;41724;51.176;-0.708;2023-02-28T04:57:35;102848.13;;;4.19;50.03
55517;BME280;41724;51.176;-0.708;2023-02-28T05:00:03;102849.50;;;3.53;50.72
55517;BME280;41724;51.176;-0.708;2023-02-28T05:02:30;102848.86;;;3.79;49.62
55517;BME280;41724;51.176;-0.708;2023-02-28T05:05:01;102847.00;;;3.87;49.97
55517;BME280;41724;51.176;-0.708;2023-02-28T05:07:28;102847.45;;;4.12;50.02
55517;BME280;41724;51.176;-0.708;2023-02-28T05:09:55;102841.88;;;3.85;49.69
55517;BME280;41724;51.176;-0.708;2023-02-28T05:12:22;102844.14;;;3.90;50.77
55517;BME280;41724;51.176;-0.708;2023-02-28T05:14:49;102845.31;;;3.90;50.41
55517;BME280;41724;51.176;-0.708;2023-02-28T05:17:16;102843.84;;;3.62;50.84
55517;BME280;41724;51.176;-0.708;2023-02-28T05:19:44;102841.31;;;3.26;51.05
55517;BME280;41724;51.176;-0.708;2023-02-28T05:22:14;102844.50;;;3.63;51.13
55517;BME280;41724;51.176;-0.708;2023-02-28T05:24:41;102841.99;;;3.39;51.59
55517;BME280;41724;51.176;-0.708;2023-02-28T05:27:09;102846.73;;;3.06;52.17
55517;BME280;41724;51.176;-0.708;2023-02-28T05:29:37;102848.78;;;3.32;51.68
55517;BME280;41724;51.176;-0.708;2023-02-28T05:32:04;102845.94;;;2.74;52.51
55517;BME280;41724;51.176;-0.708;2023-02-28T05:34:32;102848.30;;;3.02;51.79
55517;BME280;41724;51.176;-0.708;2023-02-28T05:36:58;102851.60;;;3.07;51.63
55517;BME280;41724;51.176;-0.708;2023-02-28T05:39:25;102852.79;;;3.31;51.91
55517;BME280;41724;51.176;-0.708;2023-02-28T05:41:53;102854.56;;;3.19;52.52
55517;BME280;41724;51.176;-0.708;2023-02-28T05:44:20;102857.70;;;2.80;52.70
55517;BME280;41724;51.176;-0.708;2023-02-28T05:46:47;102863.02;;;3.17;52.45
55517;BME280;41724;51.176;-0.708;2023-02-28T05:49:14;102861.98;;;3.33;52.49
55517;BME280;41724;51.176;-0.708;2023-02-28T05:51:41;102858.67;;;3.06;52.81
55517;BME280;41724;51.176;-0.708;2023-02-28T05:54:08;102862.23;;;3.49;52.16
55517;BME280;41724;51.176;-0.708;2023-02-28T05:56:35;102862.17;;;3.52;51.42
55517;BME280;41724;51.176;-0.708;2023-02-28T05:59:02;102862.35;;;2.93;53.61
55517;BME280;41724;51.176;-0.708;2023-02-28T06:01:34;102861.99;;;3.46;51.20
55517;BME280;41724;51.176;-0.708;2023-02-28T06:04:03;102862.10;;;3.50;51.45
55517;BME280;41724;51.176;-0.708;2023-02-28T06:06:31;102859.60;;;3.52;52.34
55517;BME280;41724;51.176;-0.708;2023-02-28T06:08:58;102861.84;;;3.13;51.82
55517;BME280;41724;51.176;-0.708;2023-02-28T06:11:26;102862.99;;;3.26;51.95
55517;BME280;41724;51.176;-0.708;2023-02-28T06:13:54;102862.80;;;3.02;52.04
55517;BME280;41724;51.176;-0.708;2023-02-28T06:16:21;102864.14;;;3.47;51.07
55517;BME280;41724;51.176;-0.708;2023-02-28T06:18:48;102865.72;;;3.50;51.30
55517;BME280;41724;51.176;-0.708;2023-02-28T06:21:15;102868.42;;;2.89;53.22
55517;BME280;41724;51.176;-0.708;2023-02-28T06:23:42;102868.50;;;2.89;53.56
55517;BME280;41724;51.176;-0.708;2023-02-28T06:26:10;102869.45;;;3.00;53.75
55517;BME280;41724;51.176;-0.708;2023-02-28T06:28:37;102871.67;;;3.23;52.17
55517;BME280;41724;51.176;-0.708;2023-02-28T06:31:09;102866.04;;;3.22;52.58
55517;BME280;41724;51.176;-0.708;2023-02-28T06:33:37;102868.60;;;3.44;51.46
55517;BME280;41724;51.176;-0.708;2023-02-28T06:36:06;102866.37;;;3.36;52.32
55517;BME280;41724;51.176;-0.708;2023-02-28T06:38:34;102869.56;;;3.46;51.44
55517;BME280;41724;51.176;-0.708;2023-02-28T06:41:01;102871.68;;;3.35;51.83
55517;BME280;41724;51.176;-0.708;2023-02-28T06:43:30;102874.86;;;3.36;51.55
55517;BME280;41724;51.176;-0.708;2023-02-28T06:45:59;102879.80;;;3.47;51.39
55517;BME280;41724;51.176;-0.708;2023-02-28T06:48:27;102879.39;;;3.48;51.79
55517;BME280;41724;51.176;-0.708;2023-02-28T06:51:03;102880.37;;;3.39;50.98
55517;BME280;41724;51.176;-0.708;2023-02-28T06:53:32;102888.68;;;3.68;50.39
55517;BME280;41724;51.176;-0.708;2023-02-28T06:55:58;102887.43;;;3.60;50.73
55517;BME280;41724;51.176;-0.708;2023-02-28T06:58:25;102887.98;;;3.67;51.09
55517;BME280;41724;51.176;-0.708;2023-02-28T07:00:53;102890.67;;;3.71;50.48
55517;BME280;41724;51.176;-0.708;2023-02-28T07:03:20;102892.11;;;3.35;51.04
55517;BME280;41724;51.176;-0.708;2023-02-28T07:05:47;102892.48;;;3.29;50.72
55517;BME280;41724;51.176;-0.708;2023-02-28T07:08:15;102891.50;;;3.56;50.84
55517;BME280;41724;51.176;-0.708;2023-02-28T07:10:42;102890.85;;;3.80;50.30
55517;BME280;41724;51.176;-0.708;2023-02-28T07:13:10;102890.88;;;4.00;50.23
55517;BME280;41724;51.176;-0.708;2023-02-28T07:15:38;102892.91;;;3.86;49.79
55517;BME280;41724;51.176;-0.708;2023-02-28T07:18:05;102891.49;;;3.76;50.39
55517;BME280;41724;51.176;-0.708;2023-02-28T07:20:32;102890.26;;;4.30;50.70
55517;BME280;41724;51.176;-0.708;2023-02-28T07:23:00;102890.07;;;4.17;51.06
55517;BME280;41724;51.176;-0.708;2023-02-28T07:25:28;102893.81;;;3.99;51.39
55517;BME280;41724;51.176;-0.708;2023-02-28T07:27:56;102887.16;;;4.27;50.32
55517;BME280;41724;51.176;-0.708;2023-02-28T07:30:23;102882.60;;;4.44;50.46
55517;BME280;41724;51.176;-0.708;2023-02-28T07:32:51;102881.89;;;4.69;49.93
55517;BME280;41724;51.176;-0.708;2023-02-28T07:35:18;102884.81;;;4.48;49.89
55517;BME280;41724;51.176;-0.708;2023-02-28T07:37:45;102878.29;;;4.65;50.13
55517;BME280;41724;51.176;-0.708;2023-02-28T07:40:13;102881.76;;;4.78;50.12
55517;BME280;41724;51.176;-0.708;2023-02-28T07:42:41;102880.58;;;4.74;50.09
55517;BME280;41724;51.176;-0.708;2023-02-28T07:45:10;102881.21;;;4.66;50.28
55517;BME280;41724;51.176;-0.708;2023-02-28T07:47:38;102883.76;;;4.71;50.29
55517;BME280;41724;51.176;-0.708;2023-02-28T07:50:06;102888.97;;;4.57;51.44
55517;BME280;41724;51.176;-0.708;2023-02-28T07:52:33;102884.60;;;4.43;52.09
55517;BME280;41724;51.176;-0.708;2023-02-28T07:55:00;102890.98;;;4.48;51.61
55517;BME280;41724;51.176;-0.708;2023-02-28T07:57:27;102891.16;;;4.88;51.57
55517;BME280;41724;51.176;-0.708;2023-02-28T07:59:55;102892.04;;;5.13;51.30
55517;BME280;41724;51.176;-0.708;2023-02-28T08:02:22;102890.46;;;4.85;52.96
55517;BME280;41724;51.176;-0.708;2023-02-28T08:04:50;102890.79;;;4.74;53.35
55517;BME280;41724;51.176;-0.708;2023-02-28T08:07:18;102886.82;;;5.01;52.64
55517;BME280;41724;51.176;-0.708;2023-02-28T08:09:45;102887.65;;;5.24;52.62
55517;BME280;41724;51.176;-0.708;2023-02-28T08:12:13;102888.53;;;5.31;52.94
55517;BME280;41724;51.176;-0.708;2023-02-28T08:14:40;102886.49;;;5.43;52.78
55517;BME280;41724;51.176;-0.708;2023-02-28T08:17:08;102888.31;;;5.72;52.26
55517;BME280;41724;51.176;-0.708;2023-02-28T08:19:36;102886.21;;;5.36;53.88
55517;BME280;41724;51.176;-0.708;2023-02-28T08:22:05;102884.17;;;5.49;54.11
55517;BME280;41724;51.176;-0.708;2023-02-28T08:24:33;102886.62;;;6.05;53.30
55517;BME280;41724;51.176;-0.708;2023-02-28T08:27:00;102888.03;;;6.25;53.32
55517;BME280;41724;51.176;-0.708;2023-02-28T08:29:27;102892.43;;;6.25;53.75
55517;BME280;41724;51.176;-0.708;2023-02-28T08:31:54;102892.70;;;5.87;54.85
55517;BME280;41724;51.176;-0.708;2023-02-28T08:34:22;102891.30;;;6.11;54.95
55517;BME280;41724;51.176;-0.708;2023-02-28T08:36:49;102890.20;;;6.50;54.43
55517;BME280;41724;51.176;-0.708;2023-02-28T08:39:16;102890.51;;;6.53;54.18
55517;BME280;41724;51.176;-0.708;2023-02-28T08:41:44;102890.49;;;6.46;55.78
55517;BME280;41724;51.176;-0.708;2023-02-28T08:44:11;102887.80;;;6.18;56.00
55517;BME280;41724;51.176;-0.708;2023-02-28T08:46:38;102886.70;;;6.28;55.95
55517;BME280;41724;51.176;-0.708;2023-02-28T08:49:05;102883.27;;;6.49;55.02
55517;BME280;41724;51.176;-0.708;2023-02-28T08:51:33;102884.73;;;6.21;55.74
55517;BME280;41724;51.176;-0.708;2023-02-28T08:54:00;102885.79;;;6.36;56.70
55517;BME280;41724;51.176;-0.708;2023-02-28T08:56:28;102887.76;;;6.49;55.68
55517;BME280;41724;51.176;-0.708;2023-02-28T08:58:56;102886.40;;;6.24;57.56
55517;BME280;41724;51.176;-0.708;2023-02-28T09:01:26;102889.10;;;5.92;58.25
55517;BME280;41724;51.176;-0.708;2023-02-28T09:03:54;102884.06;;;6.37;57.43
55517;BME280;41724;51.176;-0.708;2023-02-28T09:06:23;102887.40;;;6.32;56.88
55517;BME280;41724;51.176;-0.708;2023-02-28T09:08:50;102887.57;;;6.07;59.19
55517;BME280;41724;51.176;-0.708;2023-02-28T09:11:18;102885.92;;;6.85;57.12
55517;BME280;41724;51.176;-0.708;2023-02-28T09:13:45;102883.78;;;6.79;57.67
55517;BME280;41724;51.176;-0.708;2023-02-28T09:16:16;102885.90;;;7.04;56.70
55517;BME280;41724;51.176;-0.708;2023-02-28T09:18:43;102888.03;;;7.49;56.00
55517;BME280;41724;51.176;-0.708;2023-02-28T09:21:12;102885.31;;;7.17;55.63
55517;BME280;41724;51.176;-0.708;2023-02-28T09:23:40;102880.87;;;7.15;55.09
55517;BME280;41724;51.176;-0.708;2023-02-28T09:26:14;102879.62;;;7.52;54.17
55517;BME280;41724;51.176;-0.708;2023-02-28T09:28:41;102882.60;;;7.92;53.47
55517;BME280;41724;51.176;-0.708;2023-02-28T09:31:12;102875.24;;;7.81;54.01
55517;BME280;41724;51.176;-0.708;2023-02-28T09:33:40;102866.51;;;8.04;53.03
55517;BME280;41724;51.176;-0.708;2023-02-28T09:36:08;102870.59;;;8.04;52.63
55517;BME280;41724;51.176;-0.708;2023-02-28T09:38:35;102872.50;;;8.01;53.51
55517;BME280;41724;51.176;-0.708;2023-02-28T09:41:09;102868.63;;;8.41;52.90
55517;BME280;41724;51.176;-0.708;2023-02-28T09:43:43;102864.21;;;8.60;52.17
55517;BME280;41724;51.176;-0.708;2023-02-28T09:46:18;102857.45;;;8.80;51.94
55517;BME280;41724;51.176;-0.708;2023-02-28T09:48:51;102864.07;;;7.65;53.57
55517;BME280;41724;51.176;-0.708;2023-02-28T09:51:32;102866.52;;;8.12;53.72
55517;BME280;41724;51.176;-0.708;2023-02-28T09:54:03;102864.12;;;7.87;54.19
55517;BME280;41724;51.176;-0.708;2023-02-28T09:56:33;102867.38;;;8.47;53.34
55517;BME280;41724;51.176;-0.708;2023-02-28T09:59:11;102863.12;;;7.94;54.08
55517;BME280;41724;51.176;-0.708;2023-02-28T10:01:46;102862.86;;;8.11;54.49
55517;BME280;41724;51.176;-0.708;2023-02-28T10:04:36;102871.54;;;7.68;55.39
55517;BME280;41724;51.176;-0.708;2023-02-28T10:07:11;102870.04;;;8.70;52.43
55517;BME280;41724;51.176;-0.708;2023-02-28T10:09:45;102868.80;;;8.27;53.53
55517;BME280;41724;51.176;-0.708;2023-02-28T10:12:16;102868.85;;;9.09;52.22
55517;BME280;41724;51.176;-0.708;2023-02-28T10:14:45;102864.72;;;8.77;52.37
55517;BME280;41724;51.176;-0.708;2023-02-28T10:17:16;102858.37;;;8.85;51.20
55517;BME280;41724;51.176;-0.708;2023-02-28T10:19:55;102862.22;;;8.86;50.89
55517;BME280;41724;51.176;-0.708;2023-02-28T10:22:25;102863.75;;;9.14;51.14
55517;BME280;41724;51.176;-0.708;2023-02-28T10:24:55;102855.15;;;8.98;51.23
55517;BME280;41724;51.176;-0.708;2023-02-28T10:27:26;102851.59;;;9.37;51.08
55517;BME280;41724;51.176;-0.708;2023-02-28T10:29:57;102840.98;;;9.39;49.25
55517;BME280;41724;51.176;-0.708;2023-02-28T10:32:27;102846.28;;;9.35;49.96
55517;BME280;41724;51.176;-0.708;2023-02-28T10:34:57;102839.56;;;9.42;49.89
55517;BME280;41724;51.176;-0.708;2023-02-28T10:37:27;102838.74;;;9.37;50.18
55517;BME280;41724;51.176;-0.708;2023-02-28T10:39:55;102828.23;;;9.45;49.89
55517;BME280;41724;51.176;-0.708;2023-02-28T10:42:24;102831.94;;;9.55;49.93
55517;BME280;41724;51.176;-0.708;2023-02-28T10:45:12;102830.48;;;9.33;49.52
55517;BME280;41724;51.176;-0.708;2023-02-28T10:47:52;102832.79;;;8.76;51.68
55517;BME280;41724;51.176;-0.708;2023-02-28T10:50:32;102831.86;;;8.53;51.94
55517;BME280;41724;51.176;-0.708;2023-02-28T10:53:29;102840.19;;;8.71;51.57
55517;BME280;41724;51.176;-0.708;2023-02-28T10:55:59;102843.03;;;8.88;52.71
55517;BME280;41724;51.176;-0.708;2023-02-28T10:58:29;102841.28;;;8.74;52.49
55517;BME280;41724;51.176;-0.708;2023-02-28T11:00:57;102839.03;;;8.58;52.97
55517;BME280;41724;51.176;-0.708;2023-02-28T11:03:31;102846.71;;;8.04;54.03
55517;BME280;41724;51.176;-0.708;2023-02-28T11:06:05;102844.21;;;8.21;54.78
55517;BME280;41724;51.176;-0.708;2023-02-28T11:08:33;102840.59;;;8.75;53.06
55517;BME280;41724;51.176;-0.708;2023-02-28T11:11:04;102839.91;;;8.71;52.48
55517;BME280;41724;51.176;-0.708;2023-02-28T11:13:33;102834.69;;;9.02;51.84
55517;BME280;41724;51.176;-0.708;2023-02-28T11:16:05;102833.42;;;8.89;51.24
55517;BME280;41724;51.176;-0.708;2023-02-28T11:18:40;102827.09;;;8.87;52.57
55517;BME280;41724;51.176;-0.708;2023-02-28T11:21:09;102818.87;;;9.00;51.54
55517;BME280;41724;51.176;-0.708;2023-02-28T11:23:42;102810.76;;;9.53;51.18
55517;BME280;41724;51.176;-0.708;2023-02-28T11:26:11;102808.86;;;8.95;51.39
55517;BME280;41724;51.176;-0.708;2023-02-28T11:28:39;102810.79;;;9.66;50.53
55517;BME280;41724;51.176;-0.708;2023-02-28T11:31:17;102810.76;;;9.20;51.88
55517;BME280;41724;51.176;-0.708;2023-02-28T11:33:46;102809.76;;;9.77;50.60
55517;BME280;41724;51.176;-0.708;2023-02-28T11:36:17;102804.41;;;10.28;48.88
55517;BME280;41724;51.176;-0.708;2023-02-28T11:38:45;102802.14;;;10.13;48.48
55517;BME280;41724;51.176;-0.708;2023-02-28T11:41:28;102798.04;;;9.62;50.40
55517;BME280;41724;51.176;-0.708;2023-02-28T11:44:08;102798.81;;;9.67;49.28
55517;BME280;41724;51.176;-0.708;2023-02-28T11:46:43;102793.88;;;10.34;48.87
55517;BME280;41724;51.176;-0.708;2023-02-28T11:49:29;102787.69;;;10.08;48.92
55517;BME280;41724;51.176;-0.708;2023-02-28T11:52:00;102785.66;;;9.01;51.39
55517;BME280;41724;51.176;-0.708;2023-02-28T11:54:38;102787.57;;;8.99;52.35
55517;BME280;41724;51.176;-0.708;2023-02-28T11:57:22;102783.28;;;9.42;51.46
55517;BME280;41724;51.176;-0.708;2023-02-28T12:00:05;102773.13;;;9.44;51.37
55517;BME280;41724;51.176;-0.708;2023-02-28T12:02:48;102768.65;;;9.66;51.98
55517;BME280;41724;51.176;-0.708;2023-02-28T12:05:25;102764.44;;;9.04;50.71
55517;BME280;41724;51.176;-0.708;2023-02-28T12:08:05;102760.21;;;9.93;51.01
55517;BME280;41724;51.176;-0.708;2023-02-28T12:10:44;102758.59;;;9.40;51.28
55517;BME280;41724;51.176;-0.708;2023-02-28T12:13:21;102751.95;;;9.84;51.05
55517;BME280;41724;51.176;-0.708;2023-02-28T12:16:01;102745.21;;;9.85;51.33
55517;BME280;41724;51.176;-0.708;2023-02-28T12:18:48;102731.68;;;10.36;50.29
55517;BME280;41724;51.176;-0.708;2023-02-28T12:21:27;102719.41;;;10.49;50.12
55517;BME280;41724;51.176;-0.708;2023-02-28T12:24:12;102702.91;;;10.16;50.10
55517;BME280;41724;51.176;-0.708;2023-02-28T12:26:46;102709.68;;;9.72;50.41
55517;BME280;41724;51.176;-0.708;2023-02-28T12:29:17;102711.83;;;10.36;49.55
55517;BME280;41724;51.176;-0.708;2023-02-28T12:31:51;102719.86;;;10.24;49.67
55517;BME280;41724;51.176;-0.708;2023-02-28T12:34:22;102719.01;;;10.06;50.42
55517;BME280;41724;51.176;-0.708;2023-02-28T12:36:54;102723.80;;;9.93;50.53
55517;BME280;41724;51.176;-0.708;2023-02-28T12:39:28;102723.38;;;10.37;50.35
55517;BME280;41724;51.176;-0.708;2023-02-28T12:42:01;102722.14;;;10.14;50.00
55517;BME280;41724;51.176;-0.708;2023-02-28T12:44:35;102725.44;;;10.59;49.03
55517;BME280;41724;51.176;-0.708;2023-02-28T12:47:08;102722.23;;;10.66;48.52
55517;BME280;41724;51.176;-0.708;2023-02-28T12:49:42;102719.10;;;10.32;49.44
55517;BME280;41724;51.176;-0.708;2023-02-28T12:52:13;102719.77;;;10.34;49.54
55517;BME280;41724;51.176;-0.708;2023-02-28T12:54:51;102714.58;;;9.90;50.43
55517;BME280;41724;51.176;-0.708;2023-02-28T12:57:25;102701.30;;;10.50;49.80
55517;BME280;41724;51.176;-0.708;2023-02-28T13:00:01;102682.55;;;10.38;51.12
55517;BME280;41724;51.176;-0.708;2023-02-28T13:03:45;102666.21;;;9.92;50.80
55517;BME280;41724;51.176;-0.708;2023-02-28T13:06:28;102675.80;;;10.09;51.11
55517;BME280;41724;51.176;-0.708;2023-02-28T13:09:04;102663.37;;;9.10;51.65
55517;BME280;41724;51.176;-0.708;2023-02-28T13:11:38;102655.41;;;10.48;50.40